Main page
METAR-TAF:

METAR-TAF

Airports :

Cervia Air Base

Cervia, Italy

latitude: 44-13N, longitude: 012-18E, elevation: 6 m

Current weather observation

The report was made 28 minutes ago, at 02:55 UTC
Wind 4 kt from the West
Temperature 20°C
Humidity 78%
Pressure 1014 hPa
Visibility 10 km or more
no clouds below 1500 m and no cumulonimbus

METAR: LIPC 200255Z 27004KT CAVOK 20/16 Q1014 RMK SKC VIS MIN 9999 WIND THR11 24003KT WIND THR29 /////KT BLU

Time: 05:23 (03:23 UTC)

Forecast

The report was made 1 hour and 23 minutes ago, at 02:00 UTC
Forecast valid from 20 at 03 UTC to 20 at 12 UTC
Wind 3 kt from the West
Visibility 10 km or more
no clouds below 1500 m and no cumulonimbus
Becoming
from 20 at 07 UTC to 20 at 09 UTC
Wind 10 kt from the Northwest

TAF: LIPC 200200Z 2003/2012 28003KT CAVOK BECMG 2007/2009 31010KT

Weather observations and forecasts of more than 4000 airports (METAR and TAF reports).

The available stations are represented by yellow and red dots on the map.

Hover mouse over dot to see the name of the station.

Then click to see weather observations and forecasts.

To change the map : click on the green buttons with a black cross to zoom in, on the green button with a dash to zoom out, or on the green arrows for adjacent maps.


METAR-TAF: